Time;durP1;ratioP1;P1;durP2;ratioP2;P2;SDS_P1;SDS_P2;PMS_P1;PMS_P2;Temp;Humidity;BMP_temperature;BMP_pressure;BME280_temperature;BME280_humidity;BME280_pressure;Samples;Min_cycle;Max_cycle;Signal;HPM_P1;HPM_P2
2023/06/14 00:00:31;;;;;;;;;;;18.30;67.30;;;;;;5126805;27;19930;-75
2023/06/14 00:02:56;;;;;;;;;;;18.20;67.60;;;;;;5127722;27;19923;-75
2023/06/14 00:05:23;;;;;;;;;;;18.10;67.60;;;;;;5116320;27;19920;-75
2023/06/14 00:07:49;;;;;;;;;;;18.10;68.00;;;;;;5127252;27;19958;-75
2023/06/14 00:10:14;;;;;;;;;;;18.10;68.10;;;;;;5115487;27;19962;-75
2023/06/14 00:12:40;;;;;;;;;;;18.10;68.60;;;;;;5126050;27;19919;-75
2023/06/14 00:15:06;;;;;;;;;;;18.00;68.40;;;;;;5124647;27;20777;-75
2023/06/14 00:17:32;;;;;;;;;;;17.90;68.70;;;;;;5115807;27;19942;-76
2023/06/14 00:19:58;;;;;;;;;;;17.90;69.00;;;;;;5123133;27;20374;-75
2023/06/14 00:22:28;;;;;;;;;;;17.80;69.00;;;;;;5123066;27;19965;-75
2023/06/14 00:24:54;;;;;;;;;;;17.80;69.60;;;;;;5100276;28;20293;-75
2023/06/14 00:27:19;;;;;;;;;;;17.70;69.50;;;;;;5125047;27;19995;-75
2023/06/14 00:29:45;;;;;;;;;;;17.70;70.00;;;;;;5130437;27;19930;-75
2023/06/14 00:32:10;;;;;;;;;;;17.70;69.90;;;;;;5111773;27;19919;-75
2023/06/14 00:34:36;;;;;;;;;;;17.70;70.20;;;;;;5130611;27;19964;-75
2023/06/14 00:37:01;;;;;;;;;;;17.60;70.30;;;;;;5126983;27;20035;-75
2023/06/14 00:39:27;;;;;;;;;;;17.60;70.70;;;;;;5127734;27;19923;-75
2023/06/14 00:41:53;;;;;;;;;;;17.60;71.00;;;;;;5127870;27;19920;-75
2023/06/14 00:44:18;;;;;;;;;;;17.60;70.80;;;;;;5129305;27;19926;-75
2023/06/14 00:46:45;;;;;;;;;;;17.60;71.30;;;;;;5126856;27;20003;-75
2023/06/14 00:49:11;;;;;;;;;;;17.60;71.40;;;;;;5128537;27;19926;-75
2023/06/14 00:51:37;;;;;;;;;;;17.40;71.30;;;;;;5128443;27;20046;-75
2023/06/14 00:54:02;;;;;;;;;;;17.40;71.50;;;;;;5127711;27;19955;-75
2023/06/14 00:56:29;;;;;;;;;;;17.40;71.70;;;;;;5128491;27;19924;-75
2023/06/14 00:58:55;;;;;;;;;;;17.40;71.90;;;;;;5126995;27;19968;-76
2023/06/14 01:01:20;;;;;;;;;;;17.30;72.20;;;;;;5126906;27;19920;-76
2023/06/14 01:03:46;;;;;;;;;;;17.30;72.20;;;;;;5126859;27;19919;-75
2023/06/14 01:06:26;;;;;;;;;;;17.30;72.40;;;;;;5126350;27;19926;-75
2023/06/14 01:09:01;;;;;;;;;;;17.30;72.80;;;;;;5109389;28;19965;-75
2023/06/14 01:11:38;;;;;;;;;;;17.30;72.80;;;;;;5119179;27;19968;-75
2023/06/14 01:14:03;;;;;;;;;;;17.20;73.00;;;;;;5125649;27;19926;-75
2023/06/14 01:16:31;;;;;;;;;;;17.20;73.10;;;;;;5101471;27;19920;-75
2023/06/14 01:18:57;;;;;;;;;;;17.10;73.40;;;;;;5126884;27;20373;-75
2023/06/14 01:21:24;;;;;;;;;;;17.10;73.60;;;;;;5123343;27;19920;-75
2023/06/14 01:23:53;;;;;;;;;;;17.00;73.70;;;;;;5116593;27;19927;-75
2023/06/14 01:26:19;;;;;;;;;;;17.00;74.00;;;;;;5125884;27;19973;-75
2023/06/14 01:28:48;;;;;;;;;;;17.00;74.10;;;;;;5116054;27;19924;-75
2023/06/14 01:31:17;;;;;;;;;;;17.00;74.20;;;;;;5128298;27;20396;-75
2023/06/14 01:33:43;;;;;;;;;;;16.90;74.60;;;;;;5128291;27;19919;-76
2023/06/14 01:36:09;;;;;;;;;;;16.90;74.90;;;;;;5127975;27;19946;-75
2023/06/14 01:38:35;;;;;;;;;;;16.90;75.30;;;;;;5126846;27;20120;-75
2023/06/14 01:41:02;;;;;;;;;;;16.80;75.10;;;;;;5126838;27;20067;-75
2023/06/14 01:43:29;;;;;;;;;;;16.80;75.60;;;;;;5126269;27;19920;-75
2023/06/14 01:45:56;;;;;;;;;;;16.80;75.70;;;;;;5126712;27;19927;-75
2023/06/14 01:48:22;;;;;;;;;;;16.80;75.80;;;;;;5125041;27;20421;-75
2023/06/14 01:50:49;;;;;;;;;;;16.80;76.30;;;;;;5119459;27;19970;-75
2023/06/14 01:53:15;;;;;;;;;;;16.80;76.40;;;;;;5121171;27;19930;-75
2023/06/14 01:55:43;;;;;;;;;;;16.70;76.50;;;;;;5127255;27;20306;-75
2023/06/14 01:58:09;;;;;;;;;;;16.70;77.00;;;;;;5113668;27;19927;-75
2023/06/14 02:00:35;;;;;;;;;;;16.70;77.20;;;;;;5122070;27;19924;-75
2023/06/14 02:03:01;;;;;;;;;;;16.70;77.40;;;;;;5114551;27;19926;-75
2023/06/14 02:05:26;;;;;;;;;;;16.60;77.70;;;;;;5101838;28;19919;-75
2023/06/14 02:07:53;;;;;;;;;;;16.60;78.20;;;;;;5111598;27;19927;-75
2023/06/14 02:10:18;;;;;;;;;;;16.50;77.90;;;;;;5101670;27;19919;-75
2023/06/14 02:12:44;;;;;;;;;;;16.50;78.60;;;;;;5097685;28;19923;-75
2023/06/14 02:15:16;;;;;;;;;;;16.40;78.90;;;;;;5122048;27;19920;-76
2023/06/14 02:17:51;;;;;;;;;;;16.40;79.90;;;;;;5126143;27;19919;-75
2023/06/14 02:20:16;;;;;;;;;;;16.40;79.10;;;;;;5103046;27;19928;-75
2023/06/14 02:22:42;;;;;;;;;;;16.30;79.60;;;;;;5097442;28;19973;-75
2023/06/14 02:25:07;;;;;;;;;;;16.30;80.10;;;;;;5102948;27;20327;-76
2023/06/14 02:27:33;;;;;;;;;;;16.20;79.80;;;;;;5119236;28;19919;-75
2023/06/14 02:29:59;;;;;;;;;;;16.20;80.60;;;;;;5108838;28;20340;-75
2023/06/14 02:32:27;;;;;;;;;;;16.20;80.40;;;;;;5110073;28;20382;-75
2023/06/14 02:34:53;;;;;;;;;;;16.20;80.50;;;;;;5108608;28;20422;-75
2023/06/14 02:37:19;;;;;;;;;;;16.10;81.20;;;;;;5108356;28;20011;-75
2023/06/14 02:39:44;;;;;;;;;;;16.20;81.50;;;;;;5127932;28;20009;-75
2023/06/14 02:42:10;;;;;;;;;;;16.20;82.20;;;;;;5129100;27;19923;-75
2023/06/14 02:44:35;;;;;;;;;;;16.10;82.50;;;;;;5129278;27;20010;-75
2023/06/14 02:47:01;;;;;;;;;;;16.10;82.60;;;;;;5117300;27;19924;-75
2023/06/14 02:49:27;;;;;;;;;;;16.00;83.20;;;;;;5109675;28;20317;-75
2023/06/14 02:51:52;;;;;;;;;;;16.00;83.10;;;;;;5110150;27;20013;-75
2023/06/14 02:54:17;;;;;;;;;;;16.00;83.90;;;;;;5107693;27;20298;-75
2023/06/14 02:56:43;;;;;;;;;;;16.00;84.20;;;;;;5121996;27;19931;-75
2023/06/14 02:59:09;;;;;;;;;;;16.00;84.30;;;;;;5118409;27;19927;-75
2023/06/14 03:01:35;;;;;;;;;;;16.00;85.10;;;;;;5120352;27;20007;-75
2023/06/14 03:04:01;;;;;;;;;;;16.00;85.50;;;;;;5115019;27;19919;-75
2023/06/14 03:06:29;;;;;;;;;;;16.00;85.40;;;;;;5119315;27;19920;-75
2023/06/14 03:08:59;;;;;;;;;;;16.00;86.10;;;;;;5118967;27;19987;-75
2023/06/14 03:11:25;;;;;;;;;;;15.90;86.80;;;;;;5118794;27;19920;-75
2023/06/14 03:13:50;;;;;;;;;;;15.90;87.00;;;;;;5117556;27;19927;-75
2023/06/14 03:16:19;;;;;;;;;;;15.90;88.00;;;;;;5116855;27;19959;-75
2023/06/14 03:18:45;;;;;;;;;;;15.90;88.10;;;;;;5119214;27;19923;-75
2023/06/14 03:21:11;;;;;;;;;;;15.90;88.60;;;;;;5116384;27;19927;-75
2023/06/14 03:23:36;;;;;;;;;;;15.80;89.10;;;;;;5117748;27;19954;-75
2023/06/14 03:26:02;;;;;;;;;;;15.80;90.00;;;;;;5117858;27;19951;-75
2023/06/14 03:28:27;;;;;;;;;;;15.90;90.30;;;;;;5117389;27;20356;-75
2023/06/14 03:30:53;;;;;;;;;;;15.90;90.60;;;;;;5118050;27;19920;-75
2023/06/14 03:33:19;;;;;;;;;;;15.90;90.70;;;;;;5117638;27;19927;-75
2023/06/14 03:35:44;;;;;;;;;;;15.90;91.10;;;;;;5118544;27;20337;-76
2023/06/14 03:38:10;;;;;;;;;;;15.90;91.40;;;;;;5114097;27;20397;-76
2023/06/14 03:40:35;;;;;;;;;;;15.90;91.70;;;;;;5115421;27;20040;-75
2023/06/14 03:43:01;;;;;;;;;;;16.00;91.90;;;;;;5112730;28;19926;-75
2023/06/14 03:45:26;;;;;;;;;;;16.00;92.00;;;;;;5116353;27;19920;-75
2023/06/14 03:47:52;;;;;;;;;;;16.00;92.40;;;;;;5113706;27;20435;-75
2023/06/14 03:50:18;;;;;;;;;;;16.00;92.70;;;;;;5116298;27;20302;-75
2023/06/14 03:52:44;;;;;;;;;;;16.00;92.90;;;;;;5114453;27;20306;-75
2023/06/14 03:55:10;;;;;;;;;;;16.10;93.20;;;;;;5114705;27;19926;-76
2023/06/14 03:57:36;;;;;;;;;;;16.10;93.40;;;;;;5112155;27;19924;-75
2023/06/14 04:00:01;;;;;;;;;;;16.10;93.60;;;;;;5113445;27;19926;-75
2023/06/14 04:02:28;;;;;;;;;;;16.10;94.10;;;;;;5113486;27;19966;-75
2023/06/14 04:04:54;;;;;;;;;;;16.20;94.40;;;;;;5111857;27;20081;-75
2023/06/14 04:07:20;;;;;;;;;;;16.20;94.50;;;;;;5112677;27;20452;-76
2023/06/14 04:09:46;;;;;;;;;;;16.20;94.80;;;;;;5112513;27;19959;-75
2023/06/14 04:12:11;;;;;;;;;;;16.20;95.00;;;;;;5123508;27;19999;-75
2023/06/14 04:14:37;;;;;;;;;;;16.30;95.50;;;;;;5131303;27;19926;-75
2023/06/14 04:17:03;;;;;;;;;;;16.30;95.60;;;;;;5131789;27;20013;-75
2023/06/14 04:19:28;;;;;;;;;;;16.40;95.80;;;;;;5114223;27;19919;-75
2023/06/14 04:21:54;;;;;;;;;;;16.40;96.30;;;;;;5112585;28;20545;-75
2023/06/14 04:24:19;;;;;;;;;;;16.40;96.30;;;;;;5111923;27;19931;-75
2023/06/14 04:26:45;;;;;;;;;;;16.50;96.60;;;;;;5111231;27;19930;-75
2023/06/14 04:29:14;;;;;;;;;;;16.50;96.30;;;;;;5098641;27;20303;-76
2023/06/14 04:31:40;;;;;;;;;;;16.60;96.70;;;;;;5112245;27;20306;-75
2023/06/14 04:34:07;;;;;;;;;;;16.60;96.50;;;;;;5112103;27;19927;-75
2023/06/14 04:36:34;;;;;;;;;;;16.60;96.80;;;;;;5112303;27;19920;-75
2023/06/14 04:39:00;;;;;;;;;;;16.60;96.70;;;;;;5112672;27;19946;-75
2023/06/14 04:41:30;;;;;;;;;;;16.70;96.80;;;;;;5111121;28;19923;-75
2023/06/14 04:43:57;;;;;;;;;;;16.70;97.10;;;;;;5112254;27;20360;-75
2023/06/14 04:46:22;;;;;;;;;;;16.70;96.80;;;;;;5111606;28;20378;-75
2023/06/14 04:48:50;;;;;;;;;;;16.70;96.70;;;;;;5111409;27;19927;-75
2023/06/14 04:51:16;;;;;;;;;;;16.80;97.00;;;;;;5111767;28;19920;-75
2023/06/14 04:53:42;;;;;;;;;;;16.80;96.90;;;;;;5111182;28;19963;-75
2023/06/14 04:56:08;;;;;;;;;;;16.80;96.90;;;;;;5093365;28;19920;-75
2023/06/14 04:58:33;;;;;;;;;;;16.90;97.10;;;;;;5112824;27;20012;-75
2023/06/14 05:00:59;;;;;;;;;;;16.90;96.90;;;;;;5112488;27;19927;-75
2023/06/14 05:03:25;;;;;;;;;;;16.90;97.10;;;;;;5111984;27;20007;-75
2023/06/14 05:05:50;;;;;;;;;;;17.00;96.70;;;;;;5111069;27;19920;-75
2023/06/14 05:08:16;;;;;;;;;;;17.00;97.30;;;;;;5111790;27;19927;-75
2023/06/14 05:10:42;;;;;;;;;;;17.10;96.80;;;;;;5111316;28;20010;-75
2023/06/14 05:13:07;;;;;;;;;;;17.10;96.40;;;;;;5125356;27;19920;-75
2023/06/14 05:15:33;;;;;;;;;;;17.20;96.60;;;;;;5112208;27;19927;-75
2023/06/14 05:17:58;;;;;;;;;;;17.20;96.70;;;;;;5111452;27;19926;-75
2023/06/14 05:20:25;;;;;;;;;;;17.30;96.50;;;;;;5110893;27;19919;-75
2023/06/14 05:22:53;;;;;;;;;;;17.30;96.40;;;;;;5110118;27;19919;-74
2023/06/14 05:25:20;;;;;;;;;;;17.30;96.70;;;;;;5121488;27;20692;-74
2023/06/14 05:27:46;;;;;;;;;;;17.30;96.40;;;;;;5109415;27;19930;-75
2023/06/14 05:30:11;;;;;;;;;;;17.40;96.50;;;;;;5091585;28;19928;-76
2023/06/14 05:32:37;;;;;;;;;;;17.40;96.90;;;;;;5114715;27;19921;-76
2023/06/14 05:35:03;;;;;;;;;;;17.40;96.30;;;;;;5113170;27;19973;-76
2023/06/14 05:37:29;;;;;;;;;;;17.50;96.40;;;;;;5127959;27;20044;-76
2023/06/14 05:39:55;;;;;;;;;;;17.50;96.30;;;;;;5119049;27;20396;-76
2023/06/14 05:42:20;;;;;;;;;;;17.50;96.50;;;;;;5110769;28;19923;-76
2023/06/14 05:44:45;;;;;;;;;;;17.60;96.50;;;;;;5109776;28;19919;-76
2023/06/14 05:47:11;;;;;;;;;;;17.70;96.60;;;;;;5123565;27;19924;-76
2023/06/14 05:49:36;;;;;;;;;;;17.60;96.60;;;;;;5121010;27;20002;-76
2023/06/14 05:52:02;;;;;;;;;;;17.70;96.40;;;;;;5111094;27;19921;-76
2023/06/14 05:54:27;;;;;;;;;;;17.70;96.30;;;;;;5110913;28;19927;-76
2023/06/14 05:56:54;;;;;;;;;;;17.70;96.40;;;;;;5126410;27;19920;-76
2023/06/14 05:59:20;;;;;;;;;;;17.80;96.50;;;;;;5129562;27;19926;-76
2023/06/14 06:01:46;;;;;;;;;;;17.90;96.70;;;;;;5126689;27;20306;-76
2023/06/14 06:04:11;;;;;;;;;;;17.90;96.50;;;;;;5130115;27;19923;-76
2023/06/14 06:06:37;;;;;;;;;;;18.00;95.80;;;;;;5126990;27;20290;-76
2023/06/14 06:09:02;;;;;;;;;;;18.00;95.30;;;;;;5111173;27;20018;-76
2023/06/14 06:11:28;;;;;;;;;;;18.00;95.10;;;;;;5127320;27;19919;-76
2023/06/14 06:13:53;;;;;;;;;;;18.00;95.30;;;;;;5127720;27;20018;-76
2023/06/14 06:16:19;;;;;;;;;;;18.10;95.30;;;;;;5127134;27;19924;-76
2023/06/14 06:18:44;;;;;;;;;;;18.20;95.30;;;;;;5128025;27;19950;-76
2023/06/14 06:21:10;;;;;;;;;;;18.20;95.40;;;;;;5113310;27;19919;-76
2023/06/14 06:23:35;;;;;;;;;;;18.20;95.30;;;;;;5129287;27;19920;-76
2023/06/14 06:26:01;;;;;;;;;;;18.30;95.30;;;;;;5125762;27;20295;-76
2023/06/14 06:28:26;;;;;;;;;;;18.40;95.20;;;;;;5107048;27;19920;-77
2023/06/14 06:30:53;;;;;;;;;;;18.50;95.10;;;;;;5105945;28;19941;-76
2023/06/14 06:33:18;;;;;;;;;;;18.50;94.90;;;;;;5108723;28;19924;-76
2023/06/14 06:35:44;;;;;;;;;;;18.60;93.90;;;;;;5109263;28;20536;-76
2023/06/14 06:38:09;;;;;;;;;;;18.60;93.50;;;;;;5108964;28;19927;-76
2023/06/14 06:40:36;;;;;;;;;;;18.60;93.50;;;;;;5126665;27;19923;-76
2023/06/14 06:43:02;;;;;;;;;;;18.70;93.90;;;;;;5117767;28;19931;-76
2023/06/14 06:45:28;;;;;;;;;;;18.70;93.50;;;;;;5124767;27;19919;-76
2023/06/14 06:47:53;;;;;;;;;;;18.80;93.80;;;;;;5128193;27;19954;-76
2023/06/14 06:50:19;;;;;;;;;;;18.90;93.90;;;;;;5127196;27;19924;-76
2023/06/14 06:52:45;;;;;;;;;;;19.00;93.50;;;;;;5118260;27;19988;-76
2023/06/14 06:55:11;;;;;;;;;;;19.00;93.20;;;;;;5109643;28;19919;-76
2023/06/14 06:57:36;;;;;;;;;;;19.00;92.90;;;;;;5118804;27;19919;-76
2023/06/14 07:00:05;;;;;;;;;;;19.10;93.10;;;;;;5113201;28;19960;-76
2023/06/14 07:02:30;;;;;;;;;;;19.10;92.70;;;;;;5126901;27;19926;-76
2023/06/14 07:04:56;;;;;;;;;;;19.20;93.20;;;;;;5126476;27;20564;-76
2023/06/14 07:07:21;;;;;;;;;;;19.30;93.30;;;;;;5127234;28;19926;-76
2023/06/14 07:09:47;;;;;;;;;;;19.40;92.90;;;;;;5126453;27;19964;-76
2023/06/14 07:12:13;;;;;;;;;;;19.40;92.50;;;;;;5128480;27;19920;-76
2023/06/14 07:14:38;;;;;;;;;;;19.50;92.80;;;;;;5120984;28;19927;-76
2023/06/14 07:17:04;;;;;;;;;;;19.60;92.90;;;;;;5119481;27;19920;-76
2023/06/14 07:19:30;;;;;;;;;;;19.70;92.30;;;;;;5124125;28;20349;-76
2023/06/14 07:21:56;;;;;;;;;;;19.70;92.40;;;;;;5126888;28;20018;-76
2023/06/14 07:24:21;;;;;;;;;;;19.80;92.20;;;;;;5123443;28;20355;-76
2023/06/14 07:26:47;;;;;;;;;;;19.80;92.00;;;;;;5126551;27;19926;-76
2023/06/14 07:29:14;;;;;;;;;;;19.90;91.90;;;;;;5094953;28;19927;-76
2023/06/14 07:31:39;;;;;;;;;;;19.90;92.10;;;;;;5107115;28;20279;-76
2023/06/14 07:34:05;;;;;;;;;;;20.00;91.70;;;;;;5124524;27;19931;-76
2023/06/14 07:36:30;;;;;;;;;;;20.00;91.40;;;;;;5126476;27;20027;-76
2023/06/14 07:38:56;;;;;;;;;;;20.00;91.50;;;;;;5107767;27;20290;-76
2023/06/14 07:41:21;;;;;;;;;;;20.10;91.30;;;;;;5129093;27;19919;-76
2023/06/14 07:43:47;;;;;;;;;;;20.20;90.90;;;;;;5128758;27;19927;-76
2023/06/14 07:46:12;;;;;;;;;;;20.20;90.20;;;;;;5129714;27;19951;-76
2023/06/14 07:48:38;;;;;;;;;;;20.30;90.60;;;;;;5129042;27;19927;-76
2023/06/14 07:51:04;;;;;;;;;;;20.40;90.20;;;;;;5130510;27;19919;-76
2023/06/14 07:53:30;;;;;;;;;;;20.40;89.30;;;;;;5127852;27;20283;-76
2023/06/14 07:55:56;;;;;;;;;;;20.50;89.60;;;;;;5128940;27;19970;-76
2023/06/14 07:58:21;;;;;;;;;;;20.50;90.00;;;;;;5126869;27;19958;-77
2023/06/14 08:00:47;;;;;;;;;;;20.60;90.20;;;;;;5130224;27;19926;-76
2023/06/14 08:03:12;;;;;;;;;;;20.70;89.20;;;;;;5126904;27;19924;-76
2023/06/14 08:05:38;;;;;;;;;;;20.70;90.10;;;;;;5128183;27;20410;-76
2023/06/14 08:08:03;;;;;;;;;;;20.70;89.10;;;;;;5124919;27;20303;-76
2023/06/14 08:10:29;;;;;;;;;;;20.70;88.30;;;;;;5126888;27;19926;-76
2023/06/14 08:12:54;;;;;;;;;;;20.80;88.30;;;;;;5124536;27;19935;-76
2023/06/14 08:15:20;;;;;;;;;;;20.80;88.40;;;;;;5128376;27;19923;-76
2023/06/14 08:17:45;;;;;;;;;;;20.80;88.50;;;;;;5122305;27;19927;-76
2023/06/14 08:20:12;;;;;;;;;;;20.90;88.80;;;;;;5118174;27;19920;-76
2023/06/14 08:22:37;;;;;;;;;;;21.00;87.80;;;;;;5122922;27;19919;-76
2023/06/14 08:25:03;;;;;;;;;;;21.00;88.20;;;;;;5119011;27;19930;-76
2023/06/14 08:27:29;;;;;;;;;;;21.10;88.00;;;;;;5117175;27;20339;-76
2023/06/14 08:29:55;;;;;;;;;;;21.10;87.10;;;;;;5100883;28;19919;-76
2023/06/14 08:32:20;;;;;;;;;;;21.10;85.90;;;;;;5110033;27;19927;-76
2023/06/14 08:34:46;;;;;;;;;;;21.10;85.90;;;;;;5111364;28;19963;-76
2023/06/14 08:37:12;;;;;;;;;;;21.20;85.50;;;;;;5125595;27;19935;-76
2023/06/14 08:39:37;;;;;;;;;;;21.20;84.40;;;;;;5131016;27;19977;-76
2023/06/14 08:42:03;;;;;;;;;;;21.20;84.80;;;;;;5130290;27;19921;-76
2023/06/14 08:44:29;;;;;;;;;;;21.20;84.20;;;;;;5129715;27;19959;-76
2023/06/14 08:46:59;;;;;;;;;;;21.20;84.00;;;;;;5129171;27;20266;-76
2023/06/14 08:49:25;;;;;;;;;;;21.30;82.60;;;;;;5119830;27;19978;-76
2023/06/14 08:51:57;;;;;;;;;;;21.30;84.00;;;;;;5123814;27;19919;-76
2023/06/14 08:54:24;;;;;;;;;;;21.50;83.10;;;;;;5130121;27;19973;-76
2023/06/14 08:56:51;;;;;;;;;;;21.60;81.60;;;;;;5127229;27;19927;-76
2023/06/14 08:59:17;;;;;;;;;;;21.70;82.10;;;;;;5128419;27;19923;-75
2023/06/14 09:01:45;;;;;;;;;;;21.80;81.50;;;;;;5128214;27;19919;-75
2023/06/14 09:04:10;;;;;;;;;;;21.80;80.70;;;;;;5129081;27;19919;-76
2023/06/14 09:06:36;;;;;;;;;;;21.80;81.30;;;;;;5126748;27;19927;-75
2023/06/14 09:09:04;;;;;;;;;;;21.90;81.30;;;;;;5111135;27;20074;-75
2023/06/14 09:11:30;;;;;;;;;;;22.10;81.20;;;;;;5125683;27;19919;-75
2023/06/14 09:13:55;;;;;;;;;;;22.20;79.10;;;;;;5128325;27;19945;-75
2023/06/14 09:16:21;;;;;;;;;;;22.20;77.90;;;;;;5124807;27;19926;-75
2023/06/14 09:18:50;;;;;;;;;;;22.30;77.80;;;;;;5128600;27;19997;-75
2023/06/14 09:21:16;;;;;;;;;;;22.30;78.60;;;;;;5124795;27;19923;-75
2023/06/14 09:23:42;;;;;;;;;;;22.40;78.10;;;;;;5128700;27;19966;-76
2023/06/14 09:26:12;;;;;;;;;;;22.50;77.90;;;;;;5123273;27;20007;-76
2023/06/14 09:28:47;;;;;;;;;;;22.60;77.10;;;;;;5105826;27;19920;-75
2023/06/14 09:31:13;;;;;;;;;;;22.70;78.40;;;;;;5104405;27;19980;-76
2023/06/14 09:33:41;;;;;;;;;;;23.00;77.40;;;;;;5129575;27;19919;-76
2023/06/14 09:36:12;;;;;;;;;;;23.30;75.90;;;;;;5131183;27;20405;-76
2023/06/14 09:38:40;;;;;;;;;;;23.50;75.30;;;;;;5129252;27;19941;-76
2023/06/14 09:41:05;;;;;;;;;;;23.70;75.40;;;;;;5131190;27;19962;-76
2023/06/14 09:43:33;;;;;;;;;;;24.10;74.90;;;;;;5129185;27;19970;-76
2023/06/14 09:46:00;;;;;;;;;;;24.30;73.30;;;;;;5122828;27;19920;-76
2023/06/14 09:48:26;;;;;;;;;;;24.60;72.90;;;;;;5123171;27;19927;-76
2023/06/14 09:50:52;;;;;;;;;;;24.80;72.50;;;;;;5129049;27;19919;-76
2023/06/14 09:53:22;;;;;;;3.42;1.45;;;25.00;70.90;;;;;;5096853;27;19924;-76
2023/06/14 09:55:50;;;;;;;4.53;1.60;;;25.20;68.60;;;;;;5126868;27;20449;-76
2023/06/14 09:58:19;;;;;;;3.08;1.40;;;25.10;68.50;;;;;;5126254;27;20485;-76
2023/06/14 10:00:47;;;;;;;4.50;1.48;;;25.10;70.00;;;;;;5126617;27;20861;-76
2023/06/14 10:03:14;;;;;;;;;;;25.30;69.60;;;;;;5126605;27;20770;-76
2023/06/14 10:05:41;;;;;;;;;;;25.50;67.10;;;;;;5111378;27;20678;-76
2023/06/14 10:08:13;;;;;;;;;;;25.70;66.90;;;;;;5115906;27;20264;-76
2023/06/14 10:10:40;;;;;;;;;;;25.80;66.70;;;;;;5129224;27;20267;-76
2023/06/14 10:13:06;;;;;;;2.38;1.20;;;25.90;66.60;;;;;;5109288;27;19923;-76
2023/06/14 10:15:47;;;;;;;3.60;1.30;;;26.00;65.60;;;;;;5128369;27;20455;-77
2023/06/14 10:18:50;;;;;;;4.70;1.10;;;26.10;65.60;;;;;;5125663;27;20414;-76
2023/06/14 10:21:36;;;;;;;5.05;1.48;;;26.20;66.50;;;;;;5124959;27;20426;-76
2023/06/14 10:24:07;;;;;;;2.42;0.95;;;26.30;65.30;;;;;;5124279;27;20507;-76
2023/06/14 10:26:32;;;;;;;3.10;1.20;;;26.50;65.40;;;;;;5113770;27;20487;-76
2023/06/14 10:29:06;;;;;;;;;;;26.60;63.10;;;;;;5101317;28;20035;-76
2023/06/14 10:31:43;;;;;;;4.35;1.17;;;26.60;63.40;;;;;;5108357;28;20371;-76
2023/06/14 10:34:09;;;;;;;3.23;1.20;;;26.70;63.30;;;;;;5112809;28;20409;-76
2023/06/14 10:36:35;;;;;;;;;;;26.80;62.90;;;;;;5119074;27;20052;-76
2023/06/14 10:39:05;;;;;;;;;;;27.00;61.40;;;;;;5108880;28;19920;-76
2023/06/14 10:41:34;;;;;;;3.47;1.15;;;27.10;63.20;;;;;;5091415;28;19920;-76
2023/06/14 10:44:12;;;;;;;2.45;1.23;;;27.30;60.70;;;;;;5089786;28;20405;-76
2023/06/14 10:46:38;;;;;;;;;;;27.30;61.60;;;;;;5121198;28;20518;-76
2023/06/14 10:49:05;;;;;;;;;;;27.40;60.50;;;;;;5115946;27;19932;-76
2023/06/14 10:51:45;;;;;;;;;;;27.50;60.80;;;;;;5128582;27;19923;-76
2023/06/14 10:54:13;;;;;;;;;;;27.50;60.60;;;;;;5128048;28;19919;-76
2023/06/14 10:56:50;;;;;;;1.85;0.70;;;27.50;61.70;;;;;;5124599;28;19923;-76
2023/06/14 10:59:17;;;;;;;2.22;1.05;;;27.80;62.50;;;;;;5108300;28;20485;-76
2023/06/14 11:02:07;;;;;;;4.40;1.02;;;28.20;59.20;;;;;;5123514;27;20443;-76
2023/06/14 11:04:52;;;;;;;5.68;1.45;;;28.30;59.00;;;;;;5125033;28;20058;-76
2023/06/14 11:07:48;;;;;;;4.30;1.13;;;28.20;58.30;;;;;;5107053;28;20410;-76
2023/06/14 11:10:23;;;;;;;5.03;1.00;;;28.10;58.50;;;;;;5101255;28;20428;-76
2023/06/14 11:12:52;;;;;;;4.60;1.00;;;28.20;59.20;;;;;;5124822;27;20419;-76
2023/06/14 11:15:17;;;;;;;;;;;28.40;58.90;;;;;;5112192;27;20050;-76
2023/06/14 11:17:56;;;;;;;3.20;0.93;;;28.50;56.60;;;;;;5130141;27;19920;-76
2023/06/14 11:20:25;;;;;;;3.50;0.90;;;28.50;55.90;;;;;;5129582;27;20410;-76
2023/06/14 11:22:51;;;;;;;;;;;28.50;57.80;;;;;;5125188;27;20044;-76
2023/06/14 11:25:17;;;;;;;;;;;28.50;57.40;;;;;;5124099;27;19950;-76
2023/06/14 11:27:43;;;;;;;2.55;1.20;;;28.80;58.00;;;;;;5120979;27;19958;-76
2023/06/14 11:30:10;;;;;;;2.97;0.80;;;29.10;56.20;;;;;;5103273;28;20044;-76
2023/06/14 11:32:37;;;;;;;3.80;0.82;;;29.30;57.40;;;;;;5112345;27;20040;-76
2023/06/14 11:35:04;;;;;;;;;;;29.30;55.50;;;;;;5113538;27;20078;-76
2023/06/14 11:37:30;;;;;;;;;;;29.30;56.60;;;;;;5111408;28;19941;-76
2023/06/14 11:40:00;;;;;;;3.80;1.00;;;29.50;56.50;;;;;;5125124;27;20402;-76
2023/06/14 11:42:29;;;;;;;3.10;0.75;;;29.50;55.10;;;;;;5128982;27;20905;-76
2023/06/14 11:44:55;;;;;;;3.75;1.10;;;29.50;55.70;;;;;;5130759;27;20402;-77
2023/06/14 11:47:22;;;;;;;2.33;0.90;;;29.50;55.00;;;;;;5129167;27;20481;-76
2023/06/14 11:49:48;;;;;;;4.80;1.10;;;29.50;54.10;;;;;;5129604;27;20401;-77
2023/06/14 11:52:14;;;;;;;5.47;0.73;;;29.30;53.60;;;;;;5129059;27;20889;-76
2023/06/14 11:54:40;;;;;;;5.57;0.90;;;29.30;55.40;;;;;;5129709;27;20475;-76
2023/06/14 11:57:07;;;;;;;4.72;0.98;;;29.50;55.50;;;;;;5128201;27;20952;-76
2023/06/14 11:59:44;;;;;;;2.40;0.77;;;29.80;52.00;;;;;;5130394;27;20050;-76
2023/06/14 12:02:13;;;;;;;3.70;0.82;;;29.70;52.10;;;;;;5128667;27;20039;-76
2023/06/14 12:04:41;;;;;;;4.25;0.90;;;29.50;51.50;;;;;;5125407;27;20085;-76
2023/06/14 12:07:15;;;;;;;2.65;0.68;;;29.40;52.00;;;;;;5127351;27;20771;-76
2023/06/14 12:09:44;;;;;;;2.95;0.85;;;29.50;52.40;;;;;;5125005;27;20412;-76
2023/06/14 12:12:12;;;;;;;2.75;0.70;;;29.60;52.80;;;;;;5110214;27;20493;-77
2023/06/14 12:14:41;;;;;;;1.80;0.57;;;29.70;52.60;;;;;;5122947;27;20411;-77
2023/06/14 12:17:08;;;;;;;3.92;0.70;;;29.80;51.80;;;;;;5127986;27;20437;-76
2023/06/14 12:19:42;;;;;;;2.38;0.80;;;29.80;52.70;;;;;;5125115;27;20411;-76
2023/06/14 12:22:10;;;;;;;3.33;0.70;;;30.00;53.60;;;;;;5127898;27;20399;-76
2023/06/14 12:24:36;;;;;;;3.83;1.02;;;30.30;53.00;;;;;;5118484;27;20062;-76
2023/06/14 12:27:03;;;;;;;2.47;0.70;;;30.40;52.10;;;;;;5119556;27;20043;-76
2023/06/14 12:29:32;;;;;;;1.67;0.75;;;30.30;51.20;;;;;;5103407;27;20039;-76
2023/06/14 12:31:58;;;;;;;2.78;0.82;;;30.30;51.50;;;;;;5130241;27;20909;-76
2023/06/14 12:34:24;;;;;;;2.03;0.80;;;30.10;52.30;;;;;;5127084;27;20454;-76
2023/06/14 12:36:50;;;;;;;;;;;30.10;52.70;;;;;;5129631;27;20047;-76
2023/06/14 12:39:15;;;;;;;;;;;30.30;51.40;;;;;;5127994;27;19919;-76
2023/06/14 12:41:41;;;;;;;2.77;0.90;;;30.50;50.90;;;;;;5130345;27;19927;-76
2023/06/14 12:44:07;;;;;;;2.65;0.80;;;30.70;51.80;;;;;;5114489;27;20406;-76
2023/06/14 12:46:33;;;;;;;;;;;30.80;51.90;;;;;;5130575;27;20039;-76
2023/06/14 12:48:59;;;;;;;1.80;0.80;;;30.90;51.20;;;;;;5128040;27;19923;-76
2023/06/14 12:51:25;;;;;;;3.40;0.70;;;30.70;49.20;;;;;;5126751;27;20483;-76
2023/06/14 12:53:51;;;;;;;4.55;0.98;;;30.60;51.30;;;;;;5124963;27;20403;-76
2023/06/14 12:56:17;;;;;;;2.17;0.80;;;30.60;51.70;;;;;;5126486;27;20964;-76
2023/06/14 12:58:42;;;;;;;1.48;0.70;;;30.70;51.40;;;;;;5127387;27;20039;-76
2023/06/14 13:01:08;;;;;;;;;;;30.80;51.10;;;;;;5128153;27;20054;-77
2023/06/14 13:03:34;;;;;;;;;;;30.90;49.90;;;;;;5127376;27;20305;-76
2023/06/14 13:06:01;;;;;;;;;;;31.10;50.50;;;;;;5115983;27;19926;-76
2023/06/14 13:08:26;;;;;;;;;;;31.30;49.90;;;;;;5127230;27;19942;-77
2023/06/14 13:10:52;;;;;;;;;;;31.40;49.70;;;;;;5128184;27;19919;-76
2023/06/14 13:13:17;;;;;;;;;;;31.20;49.10;;;;;;5124499;27;19954;-76
2023/06/14 13:15:45;;;;;;;3.63;0.80;;;31.10;48.80;;;;;;5107817;27;19923;-76
2023/06/14 13:18:12;;;;;;;2.65;0.90;;;31.20;49.90;;;;;;5123404;27;20407;-76
2023/06/14 13:20:39;;;;;;;2.47;0.75;;;31.00;48.70;;;;;;5106368;27;20402;-76
2023/06/14 13:23:07;;;;;;;3.17;0.70;;;30.90;48.00;;;;;;5123870;27;20403;-77
2023/06/14 13:25:36;;;;;;;2.22;0.80;;;30.90;49.70;;;;;;5122516;27;20414;-76
2023/06/14 13:28:03;;;;;;;3.27;0.80;;;31.10;50.30;;;;;;5118057;27;20415;-76
2023/06/14 13:30:29;;;;;;;3.43;0.80;;;31.20;49.10;;;;;;5120779;27;20777;-76
2023/06/14 13:32:55;;;;;;;2.80;0.95;;;31.40;49.80;;;;;;5129065;27;20406;-76
2023/06/14 13:35:22;;;;;;;2.05;0.85;;;31.60;49.50;;;;;;5096882;27;20906;-77
2023/06/14 13:37:47;;;;;;;4.50;1.13;;;31.90;49.30;;;;;;5127594;27;21011;-76
2023/06/14 13:40:13;;;;;;;;;;;32.20;48.40;;;;;;5115733;27;20032;-76
2023/06/14 13:42:39;;;;;;;;;;;32.30;48.10;;;;;;5116183;27;19969;-76
2023/06/14 13:45:06;;;;;;;1.08;0.60;;;32.30;47.60;;;;;;5127237;27;19919;-76
2023/06/14 13:47:32;;;;;;;3.33;0.90;;;32.30;47.70;;;;;;5127773;27;20039;-76
2023/06/14 13:49:58;;;;;;;;;;;32.40;47.90;;;;;;5125905;27;20096;-76
2023/06/14 13:52:24;;;;;;;;;;;32.50;47.50;;;;;;5121565;27;19919;-76
2023/06/14 13:54:49;;;;;;;2.53;1.00;;;32.40;45.80;;;;;;5121135;27;19926;-76